Weather at Pongtiku Airport

Public forecast

Using degrees Celsius for public forecast. Weather courtesy of forecast.io.

Closest aviation weather report (METAR) to Pongtiku Airport

Closest report is Sultan Aji Muhamad Sulaiman Airport, 205.5 nm (380.6 km) WNW. Retrieved 2022/01/17 03:30 UTC (40 minutes ago):

WALL 170330Z 01004KT 9999 FEW020 31/22 Q1010 NOSIG

Aviation forecast (TAF) for Pongtiku Airport

Forecast is more than 12 hours old.

Retrieved 2014/09/10 18:52 UTC (7 years ago):

TAF WAWT 101700Z 1018/1106 00000KT 5000 HZ SCT016 BECMG 1103/1105 06005KT 9000